createdAt,value
2019-01-08T00:04:59.146Z,4.00
2019-01-08T00:10:03.676Z,3.93
2019-01-08T00:15:08.171Z,3.77
2019-01-08T00:20:12.953Z,3.93
2019-01-08T00:25:17.351Z,3.80
2019-01-08T00:30:21.730Z,3.70
2019-01-08T00:35:26.071Z,3.67
2019-01-08T00:40:30.441Z,3.50
2019-01-08T00:45:34.851Z,3.30
2019-01-08T00:50:39.242Z,3.00
2019-01-08T00:55:43.617Z,3.00
2019-01-08T01:00:48.091Z,3.17
2019-01-08T01:05:52.517Z,2.90
2019-01-08T01:10:56.877Z,2.60
2019-01-08T01:16:01.246Z,2.90
2019-01-08T01:21:05.601Z,2.37
2019-01-08T01:26:09.979Z,2.17
2019-01-08T01:31:14.324Z,2.20
2019-01-08T01:36:18.660Z,2.20
2019-01-08T01:41:23.072Z,1.77
2019-01-08T01:46:27.422Z,1.70
2019-01-08T01:51:31.793Z,1.80
2019-01-08T01:56:36.207Z,1.80
2019-01-08T02:01:40.541Z,1.80
2019-01-08T02:06:44.895Z,1.77
2019-01-08T02:11:49.242Z,1.83
2019-01-08T02:16:53.611Z,1.27
2019-01-08T02:21:57.964Z,1.60
2019-01-08T02:27:02.735Z,1.40
2019-01-08T02:32:07.137Z,1.33
2019-01-08T02:37:11.477Z,1.63
2019-01-08T02:42:15.933Z,1.60
2019-01-08T02:47:20.314Z,1.50
2019-01-08T02:52:24.670Z,1.47
2019-01-08T02:57:29.009Z,1.13
2019-01-08T03:02:34.112Z,1.10
2019-01-08T03:07:38.550Z,1.40
2019-01-08T03:12:42.937Z,1.20
2019-01-08T03:17:47.310Z,1.27
2019-01-08T03:22:51.643Z,1.37
2019-01-08T03:27:55.997Z,1.37
2019-01-08T03:33:00.347Z,1.10
2019-01-08T03:38:04.709Z,1.30
2019-01-08T03:43:09.087Z,1.20
2019-01-08T03:48:13.488Z,1.20
2019-01-08T03:53:17.829Z,1.33
2019-01-08T03:58:22.169Z,1.20
2019-01-08T04:03:26.540Z,1.00
2019-01-08T04:08:30.887Z,1.30
2019-01-08T04:13:35.201Z,1.20
2019-01-08T04:18:39.606Z,1.20
2019-01-08T04:23:43.953Z,1.20
2019-01-08T04:28:49.412Z,1.13
2019-01-08T04:33:53.761Z,1.30
2019-01-08T04:38:58.130Z,1.20
2019-01-08T04:44:02.494Z,1.20
2019-01-08T04:49:06.893Z,1.13
2019-01-08T04:54:11.239Z,1.20
2019-01-08T04:59:15.623Z,1.30
2019-01-08T05:04:19.971Z,1.00
2019-01-08T05:09:24.365Z,1.10
2019-01-08T05:14:28.773Z,1.20
2019-01-08T05:19:33.134Z,1.20
2019-01-08T05:24:37.488Z,1.30
2019-01-08T05:29:41.825Z,1.00
2019-01-08T05:34:46.176Z,1.20
2019-01-08T05:39:50.502Z,1.30
2019-01-08T05:44:54.919Z,1.10
2019-01-08T05:49:59.259Z,1.10
2019-01-08T05:55:03.610Z,1.07
2019-01-08T06:00:16.106Z,0.80
2019-01-08T06:05:15.047Z,1.00
2019-01-08T06:10:19.387Z,1.10
2019-01-08T06:15:23.855Z,1.60
2019-01-08T06:20:28.226Z,1.27
2019-01-08T06:25:32.569Z,0.97
2019-01-08T06:30:36.962Z,0.80
2019-01-08T06:35:41.323Z,1.32
2019-01-08T06:40:45.665Z,1.27
2019-01-08T06:45:50.104Z,1.07
2019-01-08T06:50:56.232Z,1.20
2019-01-08T06:56:00.511Z,1.40
2019-01-08T07:01:05.461Z,1.00
2019-01-08T07:06:09.818Z,1.37
2019-01-08T07:11:14.151Z,1.60
2019-01-08T07:16:18.494Z,1.33
2019-01-08T07:21:22.883Z,1.07
2019-01-08T07:26:27.619Z,1.10
2019-01-08T07:31:32.004Z,1.50
2019-01-08T07:36:36.376Z,1.80
2019-01-08T07:41:40.722Z,1.20
2019-01-08T07:46:46.179Z,1.63
2019-01-08T07:51:50.550Z,1.20
2019-01-08T07:56:54.915Z,1.60
2019-01-08T08:01:59.300Z,1.40
2019-01-08T08:07:03.660Z,1.50
2019-01-08T08:12:08.034Z,2.23
2019-01-08T08:17:12.373Z,1.60
2019-01-08T08:22:16.808Z,1.60
2019-01-08T08:27:21.175Z,1.33
2019-01-08T08:32:25.569Z,1.60
2019-01-08T08:37:29.998Z,1.50
2019-01-08T08:42:34.317Z,1.70
2019-01-08T08:47:38.680Z,1.30
2019-01-08T08:52:43.133Z,1.50
2019-01-08T08:57:47.560Z,1.40
2019-01-08T09:02:51.922Z,1.50
2019-01-08T09:07:56.308Z,1.37
2019-01-08T09:13:00.718Z,1.67
2019-01-08T09:18:05.161Z,1.60
2019-01-08T09:23:09.544Z,1.27
2019-01-08T09:28:13.901Z,1.17
2019-01-08T09:33:18.259Z,1.37
2019-01-08T09:38:22.654Z,1.40
2019-01-08T09:43:27.066Z,1.20
2019-01-08T09:48:31.382Z,1.20
2019-01-08T09:53:35.755Z,1.10
2019-01-08T09:58:40.120Z,1.30
2019-01-08T10:03:44.473Z,1.40
2019-01-08T10:08:48.908Z,1.40
2019-01-08T10:13:53.252Z,1.27
2019-01-08T10:18:57.617Z,1.37
2019-01-08T10:24:02.181Z,1.40
2019-01-08T10:29:06.705Z,1.30
2019-01-08T10:34:11.020Z,1.70
2019-01-08T10:39:15.357Z,1.57
2019-01-08T10:44:19.824Z,1.70
2019-01-08T10:49:24.238Z,1.70
2019-01-08T10:54:28.607Z,1.45
2019-01-08T10:59:32.986Z,1.80
2019-01-08T11:04:37.619Z,1.67
2019-01-08T11:09:41.977Z,1.50
2019-01-08T11:14:46.462Z,1.70
2019-01-08T11:19:50.800Z,1.67
2019-01-08T11:24:55.156Z,1.40
2019-01-08T11:29:59.498Z,1.50
2019-01-08T11:35:04.008Z,1.67
2019-01-08T11:40:08.687Z,1.70
2019-01-08T11:45:13.010Z,1.57
2019-01-08T11:50:17.486Z,1.80
2019-01-08T11:55:21.842Z,1.73
2019-01-08T12:00:26.269Z,1.80
2019-01-08T12:05:30.621Z,1.90
2019-01-08T12:10:35.083Z,1.47
2019-01-08T12:15:39.422Z,1.40
2019-01-08T12:20:45.632Z,1.40
2019-01-08T12:25:50.013Z,1.60
2019-01-08T12:30:54.386Z,1.35
2019-01-08T12:35:58.750Z,1.30
2019-01-08T12:41:03.093Z,1.27
2019-01-08T12:46:07.462Z,1.10
2019-01-08T12:51:11.942Z,1.20
2019-01-08T12:56:16.301Z,1.20
2019-01-08T13:01:21.069Z,1.10
2019-01-08T13:06:26.278Z,1.10
2019-01-08T13:11:30.739Z,1.00
2019-01-08T13:16:35.123Z,1.10
2019-01-08T13:21:39.559Z,0.90
2019-01-08T13:26:43.900Z,1.07
2019-01-08T13:31:48.349Z,1.10
2019-01-08T13:36:52.727Z,1.30
2019-01-08T13:41:57.160Z,1.40
2019-01-08T13:47:01.590Z,1.20
2019-01-08T13:52:05.999Z,1.07
2019-01-08T13:57:10.611Z,1.30
2019-01-08T14:02:15.911Z,1.30
2019-01-08T14:07:20.438Z,1.20
2019-01-08T14:12:24.777Z,1.50
2019-01-08T14:17:29.251Z,1.60
2019-01-08T14:22:33.661Z,1.20
2019-01-08T14:27:38.049Z,1.30
2019-01-08T14:32:42.427Z,1.87
2019-01-08T14:37:46.815Z,1.30
2019-01-08T14:42:51.170Z,1.10
2019-01-08T14:47:55.607Z,1.50
2019-01-08T14:53:02.871Z,1.13
2019-01-08T14:58:07.198Z,1.27
2019-01-08T15:03:11.555Z,1.10
2019-01-08T15:08:16.961Z,1.00
2019-01-08T15:13:22.071Z,0.80
2019-01-08T15:18:26.450Z,0.87
2019-01-08T15:23:30.878Z,0.97
2019-01-08T15:28:35.243Z,0.97
2019-01-08T15:33:39.581Z,0.90
2019-01-08T15:38:44.063Z,1.30
2019-01-08T15:43:48.502Z,1.07
2019-01-08T15:48:52.952Z,1.23
2019-01-08T15:53:58.179Z,1.47
2019-01-08T15:59:02.637Z,1.53
2019-01-08T16:04:07.010Z,1.60
2019-01-08T16:09:11.412Z,2.33
2019-01-08T16:14:15.740Z,2.07
2019-01-08T16:19:20.073Z,2.00
2019-01-08T16:24:24.461Z,2.20
2019-01-08T16:29:28.841Z,2.30
2019-01-08T16:34:33.228Z,2.23
2019-01-08T16:39:37.591Z,2.57
2019-01-08T16:44:43.670Z,2.73
2019-01-08T16:49:48.114Z,2.70
2019-01-08T16:54:52.488Z,2.80
2019-01-08T16:59:56.857Z,2.20
2019-01-08T17:05:01.208Z,1.80
2019-01-08T17:10:07.378Z,2.10
2019-01-08T17:15:11.777Z,2.10
2019-01-08T17:20:16.133Z,2.17
2019-01-08T17:25:20.483Z,2.00
2019-01-08T17:30:24.838Z,2.20
2019-01-08T17:35:29.312Z,2.03
2019-01-08T17:40:33.694Z,1.83
2019-01-08T17:45:38.245Z,2.20
2019-01-08T17:50:42.551Z,2.17
2019-01-08T17:55:46.986Z,2.30
2019-01-08T18:00:51.319Z,2.07
2019-01-08T18:05:55.733Z,2.50
2019-01-08T18:11:00.174Z,2.37
2019-01-08T18:16:04.536Z,1.83
2019-01-08T18:21:08.898Z,1.80
2019-01-08T18:26:13.384Z,1.60
2019-01-08T18:31:18.990Z,1.60
2019-01-08T18:36:23.353Z,1.97
2019-01-08T18:41:27.775Z,1.70
2019-01-08T18:46:33.255Z,1.90
2019-01-08T18:51:37.667Z,1.50
2019-01-08T18:56:42.071Z,1.60
2019-01-08T19:01:46.472Z,1.80
2019-01-08T19:06:50.945Z,1.70
2019-01-08T19:11:55.567Z,1.60
2019-01-08T19:16:59.986Z,1.97
2019-01-08T19:22:04.381Z,1.67
2019-01-08T19:27:08.793Z,2.10
2019-01-08T19:32:13.225Z,1.93
2019-01-08T19:37:17.609Z,1.90
2019-01-08T19:42:21.999Z,1.80
2019-01-08T19:47:26.334Z,1.90
2019-01-08T19:52:31.251Z,1.90
2019-01-08T19:57:36.159Z,1.50
2019-01-08T20:02:42.430Z,1.13
2019-01-08T20:07:47.150Z,1.20
2019-01-08T20:12:51.932Z,1.03
2019-01-08T20:17:56.745Z,1.23
2019-01-08T20:23:01.102Z,1.20
2019-01-08T20:28:05.552Z,1.40
2019-01-08T20:33:10.026Z,1.30
2019-01-08T20:38:14.398Z,1.30
2019-01-08T20:43:18.846Z,2.30
2019-01-08T20:48:23.198Z,1.50
2019-01-08T20:53:27.553Z,1.70
2019-01-08T20:58:32.051Z,2.00
2019-01-08T21:03:36.361Z,1.80
2019-01-08T21:08:40.722Z,1.50
2019-01-08T21:13:45.098Z,1.60
2019-01-08T21:18:49.462Z,1.57
2019-01-08T21:23:53.800Z,1.80
2019-01-08T21:28:58.180Z,1.40
2019-01-08T21:34:02.919Z,1.80
2019-01-08T21:39:07.353Z,2.07
2019-01-08T21:44:13.645Z,1.93
2019-01-08T21:49:17.985Z,2.10
2019-01-08T21:54:22.352Z,1.70
2019-01-08T21:59:27.335Z,1.70
2019-01-08T22:04:31.695Z,1.50
2019-01-08T22:09:36.134Z,1.37
2019-01-08T22:14:40.492Z,1.40
2019-01-08T22:19:44.953Z,1.30
2019-01-08T22:24:50.179Z,0.97
2019-01-08T22:29:54.524Z,1.05
2019-01-08T22:35:02.335Z,1.20
2019-01-08T22:40:07.712Z,1.43
2019-01-08T22:45:12.066Z,1.50
2019-01-08T22:50:17.595Z,1.27
2019-01-08T22:55:21.930Z,1.30
2019-01-08T23:00:36.688Z,1.30
2019-01-08T23:05:42.713Z,1.70
2019-01-08T23:10:47.421Z,1.70
2019-01-08T23:15:51.826Z,1.23
2019-01-08T23:20:56.193Z,1.45
2019-01-08T23:26:00.557Z,0.80
2019-01-08T23:31:04.909Z,1.10
2019-01-08T23:36:09.431Z,1.30
2019-01-08T23:41:13.764Z,1.50
2019-01-08T23:46:18.127Z,1.80
2019-01-08T23:51:22.460Z,1.60
2019-01-08T23:56:27.680Z,1.30
